Time;durP1;ratioP1;P1;durP2;ratioP2;P2;SDS_P1;SDS_P2;PMS_P1;PMS_P2;Temp;Humidity;BMP_temperature;BMP_pressure;BME280_temperature;BME280_humidity;BME280_pressure;Samples;Min_cycle;Max_cycle;Signal;HPM_P1;HPM_P2
2023/10/25 00:00:15;;;;;;;8.35;5.28;;;11.70;99.90;;;;;;5044219;28;20163;-77
2023/10/25 00:02:41;;;;;;;10.30;5.47;;;11.70;99.90;;;;;;5045575;28;20029;-77
2023/10/25 00:05:06;;;;;;;8.60;5.95;;;11.70;99.90;;;;;;5044283;28;20501;-77
2023/10/25 00:07:32;;;;;;;12.70;5.93;;;11.70;99.90;;;;;;5044493;28;20494;-77
2023/10/25 00:10:00;;;;;;;11.40;5.60;;;11.70;99.90;;;;;;5042814;28;20042;-77
2023/10/25 00:12:26;;;;;;;10.15;5.45;;;11.50;99.90;;;;;;5049568;28;20052;-77
2023/10/25 00:14:53;;;;;;;9.15;5.38;;;11.50;99.90;;;;;;5048359;28;20838;-77
2023/10/25 00:17:18;;;;;;;9.00;5.32;;;11.50;99.90;;;;;;5041308;28;20094;-77
2023/10/25 00:19:44;;;;;;;8.18;5.82;;;11.50;99.90;;;;;;5042646;28;20104;-77
2023/10/25 00:22:09;;;;;;;9.05;5.65;;;11.50;99.90;;;;;;5047352;28;20039;-77
2023/10/25 00:24:35;;;;;;;12.85;5.95;;;11.50;99.90;;;;;;5038782;28;20025;-77
2023/10/25 00:27:00;;;;;;;11.60;5.90;;;11.50;99.90;;;;;;5045419;28;20440;-77
2023/10/25 00:29:26;;;;;;;8.93;5.70;;;11.50;99.90;;;;;;5046113;28;20036;-77
2023/10/25 00:31:52;;;;;;;8.57;5.95;;;11.40;99.90;;;;;;5046458;28;20471;-77
2023/10/25 00:34:18;;;;;;;8.52;5.40;;;11.40;99.90;;;;;;5046837;28;20027;-77
2023/10/25 00:36:43;;;;;;;7.90;5.90;;;11.30;99.90;;;;;;5040014;28;20029;-77
2023/10/25 00:39:09;;;;;;;13.75;6.43;;;11.30;99.90;;;;;;5042691;28;20064;-77
2023/10/25 00:41:34;;;;;;;11.18;6.20;;;11.20;99.90;;;;;;5042882;28;20048;-77
2023/10/25 00:44:00;;;;;;;13.05;6.47;;;11.30;99.90;;;;;;5041376;28;20036;-77
2023/10/25 00:46:28;;;;;;;9.75;6.28;;;11.30;99.90;;;;;;5043695;28;20028;-77
2023/10/25 00:49:00;;;;;;;;;;;11.20;99.90;;;;;;5043938;28;20029;-77
2023/10/25 00:51:28;;;;;;;8.77;5.90;;;11.20;99.90;;;;;;5048950;28;19909;-77
2023/10/25 00:53:59;;;;;;;10.88;6.00;;;11.20;99.90;;;;;;5039630;28;20037;-77
2023/10/25 00:56:27;;;;;;;12.10;6.88;;;11.20;99.90;;;;;;5048549;28;20119;-77
2023/10/25 00:58:55;;;;;;;14.30;6.88;;;11.20;99.90;;;;;;5055356;28;20029;-77
2023/10/25 01:01:27;;;;;;;8.68;5.53;;;11.10;99.90;;;;;;5050302;28;20034;-77
2023/10/25 01:03:54;;;;;;;8.77;5.38;;;11.10;99.90;;;;;;5044496;28;20022;-77
2023/10/25 01:06:19;;;;;;;7.78;5.45;;;11.20;99.90;;;;;;5047129;28;20360;-77
2023/10/25 01:08:45;;;;;;;10.70;6.05;;;11.20;99.90;;;;;;5049471;28;20031;-77
2023/10/25 01:11:14;;;;;;;8.13;5.80;;;11.30;99.90;;;;;;5048124;28;20032;-77
2023/10/25 01:13:40;;;;;;;10.18;5.65;;;11.20;99.90;;;;;;5051407;28;20029;-77
2023/10/25 01:16:06;;;;;;;12.35;6.57;;;11.30;99.90;;;;;;5049583;28;20535;-77
2023/10/25 01:18:34;;;;;;;10.35;6.13;;;11.30;99.90;;;;;;5043973;28;20116;-77
2023/10/25 01:20:59;;;;;;;12.25;5.57;;;11.30;99.90;;;;;;5045654;28;20487;-77
2023/10/25 01:23:25;;;;;;;9.75;5.60;;;11.40;99.90;;;;;;5046764;28;20033;-77
2023/10/25 01:25:50;;;;;;;10.70;5.43;;;11.40;99.90;;;;;;5053658;28;20376;-77
2023/10/25 01:28:16;;;;;;;11.48;5.68;;;11.50;99.90;;;;;;5047836;28;20025;-77
2023/10/25 01:30:41;;;;;;;8.45;5.55;;;11.40;99.90;;;;;;5043862;28;20033;-77
2023/10/25 01:33:08;;;;;;;11.30;5.78;;;11.40;99.90;;;;;;5046037;28;20028;-77
2023/10/25 01:35:34;;;;;;;12.50;5.32;;;11.30;99.90;;;;;;5049143;28;20033;-77
2023/10/25 01:38:03;;;;;;;8.25;5.60;;;11.30;99.90;;;;;;5045346;28;20060;-77
2023/10/25 01:40:28;;;;;;;9.25;4.47;;;11.40;99.90;;;;;;5046543;28;20517;-77
2023/10/25 01:42:56;;;;;;;12.80;4.75;;;11.30;99.90;;;;;;5047351;28;20029;-77
2023/10/25 01:45:26;;;;;;;;;;;11.40;99.90;;;;;;5054663;28;20517;-77
2023/10/25 01:47:52;;;;;;;9.30;4.95;;;11.40;99.90;;;;;;5051592;28;19992;-77
2023/10/25 01:50:19;;;;;;;10.90;4.65;;;11.50;99.90;;;;;;5047017;28;20104;-77
2023/10/25 01:52:44;;;;;;;10.32;4.80;;;11.40;99.90;;;;;;5047953;28;20596;-77
2023/10/25 01:55:10;;;;;;;9.52;5.07;;;11.60;99.90;;;;;;5048655;28;20061;-77
2023/10/25 01:57:36;;;;;;;6.47;4.70;;;11.50;99.90;;;;;;5044110;28;20036;-77
2023/10/25 02:00:03;;;;;;;13.23;5.28;;;11.50;99.90;;;;;;5047839;28;20067;-77
2023/10/25 02:02:29;;;;;;;7.03;4.70;;;11.50;99.90;;;;;;5039090;28;20029;-77
2023/10/25 02:04:54;;;;;;;7.47;5.13;;;11.50;99.90;;;;;;5043034;28;20049;-77
2023/10/25 02:07:20;;;;;;;14.10;5.10;;;11.60;99.90;;;;;;5045438;28;20021;-77
2023/10/25 02:09:46;;;;;;;7.47;5.00;;;11.50;99.90;;;;;;5047973;28;20021;-77
2023/10/25 02:12:11;;;;;;;9.35;4.78;;;11.50;99.90;;;;;;5045711;28;20069;-77
2023/10/25 02:14:37;;;;;;;10.57;5.07;;;11.50;99.90;;;;;;5046996;28;20025;-77
2023/10/25 02:17:03;;;;;;;10.55;5.28;;;11.50;99.90;;;;;;5043421;28;20030;-77
2023/10/25 02:19:28;;;;;;;10.85;5.15;;;11.50;99.90;;;;;;5046537;28;20153;-77
2023/10/25 02:21:56;;;;;;;6.70;4.38;;;11.50;99.90;;;;;;5043289;28;20033;-77
2023/10/25 02:24:22;;;;;;;7.15;4.72;;;11.50;99.90;;;;;;5047767;28;20091;-77
2023/10/25 02:26:49;;;;;;;8.18;4.95;;;11.60;99.90;;;;;;5043295;28;20037;-77
2023/10/25 02:29:15;;;;;;;8.50;5.00;;;11.60;99.90;;;;;;5045170;28;20091;-77
2023/10/25 02:31:41;;;;;;;8.55;4.35;;;11.60;99.90;;;;;;5037932;28;20484;-77
2023/10/25 02:34:06;;;;;;;8.63;4.68;;;11.50;99.90;;;;;;5043192;28;20372;-77
2023/10/25 02:36:32;;;;;;;13.88;5.00;;;11.50;99.90;;;;;;5042061;28;20021;-77
2023/10/25 02:38:57;;;;;;;5.90;4.55;;;11.60;99.90;;;;;;5043044;28;20025;-77
2023/10/25 02:41:23;;;;;;;9.20;4.40;;;11.50;99.90;;;;;;5048787;28;20544;-77
2023/10/25 02:43:53;;;;;;;8.88;4.90;;;11.60;99.90;;;;;;5040488;28;20036;-77
2023/10/25 02:46:19;;;;;;;9.20;4.70;;;11.60;99.90;;;;;;5044066;28;20021;-77
2023/10/25 02:48:45;;;;;;;9.23;4.57;;;11.60;99.90;;;;;;5043135;28;20033;-77
2023/10/25 02:51:13;;;;;;;10.10;4.38;;;11.60;99.90;;;;;;5042513;28;20033;-77
2023/10/25 02:53:38;;;;;;;10.57;4.13;;;11.60;99.90;;;;;;5038386;28;20483;-77
2023/10/25 02:56:06;;;;;;;7.30;4.32;;;11.70;99.90;;;;;;5040341;28;20091;-77
2023/10/25 02:58:32;;;;;;;6.60;4.53;;;11.50;99.90;;;;;;5044899;28;20033;-77
2023/10/25 03:00:58;;;;;;;12.23;4.30;;;11.70;99.90;;;;;;5034898;28;20040;-77
2023/10/25 03:03:28;;;;;;;12.38;3.97;;;11.50;99.90;;;;;;5044626;28;20022;-77
2023/10/25 03:05:53;;;;;;;5.88;4.13;;;11.60;99.90;;;;;;5040487;28;20457;-77
2023/10/25 03:08:19;;;;;;;7.93;4.07;;;11.50;99.90;;;;;;5042762;28;20104;-77
2023/10/25 03:10:45;;;;;;;10.48;4.15;;;11.70;99.90;;;;;;5044644;28;20061;-77
2023/10/25 03:13:10;;;;;;;6.22;4.13;;;11.70;99.90;;;;;;5041515;28;20372;-77
2023/10/25 03:15:36;;;;;;;10.52;4.18;;;11.70;99.90;;;;;;5045732;28;20031;-77
2023/10/25 03:18:02;;;;;;;11.73;3.90;;;11.60;99.90;;;;;;5032108;28;20041;-64
2023/10/25 03:20:28;;;;;;;7.82;4.20;;;11.60;99.90;;;;;;5042957;28;20029;-65
2023/10/25 03:22:54;;;;;;;7.05;3.88;;;11.70;99.90;;;;;;5038439;28;20049;-65
2023/10/25 03:25:25;;;;;;;8.40;4.38;;;11.60;99.90;;;;;;5040624;28;20083;-65
2023/10/25 03:27:53;;;;;;;6.55;3.70;;;11.70;99.90;;;;;;5048231;28;20025;-65
2023/10/25 03:30:19;;;;;;;10.23;3.60;;;11.70;99.90;;;;;;5047633;28;20028;-67
2023/10/25 03:32:49;;;;;;;6.25;3.58;;;11.80;99.90;;;;;;5048557;28;20450;-68
2023/10/25 03:35:15;;;;;;;4.30;3.10;;;11.70;99.90;;;;;;5041168;28;20045;-68
2023/10/25 03:37:41;;;;;;;7.28;3.72;;;11.70;99.90;;;;;;5043609;28;20380;-68
2023/10/25 03:40:07;;;;;;;5.30;3.63;;;11.70;99.90;;;;;;5047182;28;20052;-70
2023/10/25 03:42:35;;;;;;;5.82;3.25;;;11.70;99.90;;;;;;5047578;28;20033;-68
2023/10/25 03:45:06;;;;;;;5.50;3.40;;;11.60;99.90;;;;;;5048146;28;20025;-68
2023/10/25 03:47:35;;;;;;;6.07;3.20;;;11.60;99.90;;;;;;5042455;28;20487;-67
2023/10/25 03:50:03;;;;;;;4.78;3.38;;;11.60;99.90;;;;;;5040660;28;20025;-68
2023/10/25 03:52:31;;;;;;;4.13;3.08;;;11.50;99.90;;;;;;5043244;28;20030;-68
2023/10/25 03:54:57;;;;;;;;;;;11.50;99.90;;;;;;5046035;28;20020;-68
2023/10/25 03:57:26;;;;;;;8.20;3.92;;;11.50;99.90;;;;;;5039324;28;20378;-68
2023/10/25 03:59:54;;;;;;;6.38;3.40;;;11.60;99.90;;;;;;5040792;28;20025;-68
2023/10/25 04:02:20;;;;;;;5.70;3.83;;;11.60;99.90;;;;;;5036530;28;20083;-68
2023/10/25 04:04:45;;;;;;;5.25;3.22;;;11.60;99.90;;;;;;5045248;28;20601;-68
2023/10/25 04:07:14;;;;;;;9.73;3.35;;;11.60;99.90;;;;;;5045743;28;20028;-67
2023/10/25 04:09:40;;;;;;;8.30;3.75;;;11.60;99.90;;;;;;5038957;28;20514;-68
2023/10/25 04:12:11;;;;;;;7.38;3.50;;;11.60;99.90;;;;;;5048038;28;20064;-68
2023/10/25 04:14:38;;;;;;;5.30;3.47;;;11.50;99.90;;;;;;5046931;28;20025;-68
2023/10/25 04:17:04;;;;;;;6.97;3.53;;;11.40;99.90;;;;;;5045007;28;20037;-68
2023/10/25 04:19:31;;;;;;;6.47;3.15;;;11.50;99.90;;;;;;5042516;28;20033;-68
2023/10/25 04:22:00;;;;;;;4.88;3.00;;;11.50;99.90;;;;;;5047566;28;20645;-68
2023/10/25 04:24:25;;;;;;;6.75;3.42;;;11.40;99.90;;;;;;5042720;28;20071;-68
2023/10/25 04:26:51;;;;;;;6.30;3.80;;;11.40;99.90;;;;;;5042618;28;22056;-68
2023/10/25 04:29:17;;;;;;;9.15;4.13;;;11.30;99.90;;;;;;5048387;28;20029;-68
2023/10/25 04:31:42;;;;;;;5.75;3.80;;;11.20;99.90;;;;;;5040964;28;20021;-68
2023/10/25 04:34:12;;;;;;;7.63;3.55;;;11.30;99.90;;;;;;5041735;28;20047;-67
2023/10/25 04:36:38;;;;;;;5.18;3.28;;;11.30;99.90;;;;;;5038751;28;20093;-68
2023/10/25 04:39:04;;;;;;;6.40;3.50;;;11.40;99.90;;;;;;5036446;28;20037;-68
2023/10/25 04:41:30;;;;;;;5.80;3.47;;;11.40;99.90;;;;;;5045699;28;20083;-68
2023/10/25 04:43:59;;;;;;;6.68;3.33;;;11.40;99.90;;;;;;5042870;28;20408;-68
2023/10/25 04:46:24;;;;;;;;;;;11.40;99.90;;;;;;5046645;28;20032;-68
2023/10/25 04:48:52;;;;;;;7.38;3.40;;;11.30;99.90;;;;;;5044699;28;19912;-68
2023/10/25 04:51:20;;;;;;;6.68;3.75;;;11.40;99.90;;;;;;5042179;28;20030;-68
2023/10/25 04:53:50;;;;;;;4.50;3.03;;;11.30;99.90;;;;;;5041853;28;20052;-68
2023/10/25 04:56:20;;;;;;;14.23;3.70;;;11.30;99.90;;;;;;5045570;28;20033;-68
2023/10/25 04:58:46;;;;;;;5.80;3.17;;;11.30;99.90;;;;;;5038027;28;20029;-68
2023/10/25 05:01:13;;;;;;;8.48;3.28;;;11.30;99.90;;;;;;5045233;28;20029;-68
2023/10/25 05:03:39;;;;;;;9.03;3.37;;;11.30;99.90;;;;;;5044393;28;20028;-68
2023/10/25 05:06:09;;;;;;;5.90;2.70;;;11.30;99.90;;;;;;5040922;28;20025;-68
2023/10/25 05:08:37;;;;;;;10.30;3.80;;;11.30;99.90;;;;;;5038940;28;20061;-68
2023/10/25 05:11:06;;;;;;;9.27;2.85;;;11.30;99.90;;;;;;5036438;28;20047;-68
2023/10/25 05:13:33;;;;;;;10.73;3.17;;;11.30;99.90;;;;;;5043794;28;20033;-68
2023/10/25 05:16:01;;;;;;;7.03;3.00;;;11.40;99.90;;;;;;5046968;28;20071;-68
2023/10/25 05:18:27;;;;;;;6.30;3.10;;;11.30;99.90;;;;;;5039882;28;20113;-68
2023/10/25 05:21:05;;;;;;;9.20;3.40;;;11.30;99.90;;;;;;5043117;28;20425;-68
2023/10/25 05:23:32;;;;;;;9.60;3.25;;;11.40;99.90;;;;;;5040994;28;20426;-68
2023/10/25 05:26:02;;;;;;;3.80;2.65;;;11.40;99.90;;;;;;5030760;28;20625;-67
2023/10/25 05:28:30;;;;;;;6.40;3.20;;;11.50;99.90;;;;;;5036841;28;20048;-68
2023/10/25 05:31:04;;;;;;;10.82;2.90;;;11.30;99.90;;;;;;5040260;28;20025;-68
2023/10/25 05:33:31;;;;;;;7.40;2.65;;;11.40;99.90;;;;;;5043931;28;20041;-68
2023/10/25 05:36:00;;;;;;;5.87;2.67;;;11.40;99.90;;;;;;5042953;28;20033;-68
2023/10/25 05:38:26;;;;;;;8.85;3.20;;;11.30;99.90;;;;;;5046304;28;20282;-68
2023/10/25 05:40:54;;;;;;;6.07;2.72;;;11.30;99.90;;;;;;5040228;28;20028;-68
2023/10/25 05:43:26;;;;;;;10.30;3.53;;;11.30;99.90;;;;;;5041306;28;20029;-68
2023/10/25 05:45:52;;;;;;;9.55;2.88;;;11.20;99.90;;;;;;5041274;28;20021;-68
2023/10/25 05:48:17;;;;;;;7.45;3.17;;;11.30;99.90;;;;;;5037521;28;20029;-68
2023/10/25 05:50:45;;;;;;;8.70;2.95;;;11.30;99.90;;;;;;5041968;28;20029;-68
2023/10/25 05:53:14;;;;;;;8.93;3.17;;;11.20;99.90;;;;;;5036914;28;20032;-68
2023/10/25 05:55:41;;;;;;;7.93;3.10;;;11.10;99.90;;;;;;5039978;28;20479;-68
2023/10/25 05:58:09;;;;;;;8.68;2.95;;;11.10;99.90;;;;;;5033416;28;20036;-68
2023/10/25 06:00:35;;;;;;;4.95;2.40;;;11.10;99.90;;;;;;5045438;28;20112;-67
2023/10/25 06:03:01;;;;;;;4.45;2.38;;;11.00;99.90;;;;;;5043860;28;20100;-68
2023/10/25 06:05:29;;;;;;;5.80;3.08;;;10.90;99.90;;;;;;5046800;28;20025;-68
2023/10/25 06:07:55;;;;;;;9.68;2.80;;;10.90;99.90;;;;;;5035578;28;20392;-68
2023/10/25 06:10:21;;;;;;;8.48;4.03;;;10.90;99.90;;;;;;5034048;28;20040;-68
2023/10/25 06:12:47;;;;;;;8.80;3.72;;;10.80;99.90;;;;;;5034168;28;20029;-68
2023/10/25 06:15:15;;;;;;;8.57;3.47;;;10.70;99.90;;;;;;5043935;28;20048;-68
2023/10/25 06:17:40;;;;;;;6.63;3.50;;;10.70;99.90;;;;;;5036630;28;20480;-68
2023/10/25 06:20:07;;;;;;;7.95;3.33;;;10.60;99.90;;;;;;5040676;28;20035;-68
2023/10/25 06:22:32;;;;;;;7.68;3.80;;;10.70;99.90;;;;;;5039583;28;20379;-68
2023/10/25 06:25:00;;;;;;;10.93;4.13;;;10.70;99.90;;;;;;5025676;28;20033;-68
2023/10/25 06:27:26;;;;;;;10.45;3.50;;;10.60;99.90;;;;;;5039586;28;20021;-68
2023/10/25 06:29:52;;;;;;;7.88;3.90;;;10.60;99.90;;;;;;5038626;28;20036;-68
2023/10/25 06:32:17;;;;;;;7.20;4.45;;;10.60;99.90;;;;;;5035419;28;20025;-68
2023/10/25 06:34:43;;;;;;;9.25;4.25;;;10.50;99.90;;;;;;5037881;28;20033;-68
2023/10/25 06:37:08;;;;;;;5.05;3.55;;;10.60;99.90;;;;;;5037243;28;20147;-68
2023/10/25 06:39:34;;;;;;;9.68;3.70;;;10.50;99.90;;;;;;5042640;28;20091;-67
2023/10/25 06:42:00;;;;;;;9.82;3.45;;;10.50;99.90;;;;;;5037441;28;20022;-68
2023/10/25 06:44:26;;;;;;;7.93;4.10;;;10.50;99.90;;;;;;5038525;28;20021;-68
2023/10/25 06:46:52;;;;;;;6.72;4.20;;;10.50;99.90;;;;;;5040721;28;20029;-68
2023/10/25 06:49:18;;;;;;;8.98;4.10;;;10.40;99.90;;;;;;5039601;28;20029;-68
2023/10/25 06:51:47;;;;;;;10.88;4.32;;;10.40;99.90;;;;;;5033229;28;20492;-68
2023/10/25 06:54:13;;;;;;;7.97;4.85;;;10.40;99.90;;;;;;5034883;28;20070;-68
2023/10/25 06:56:38;;;;;;;13.43;4.82;;;10.50;99.90;;;;;;5033411;28;20112;-68
2023/10/25 06:59:07;;;;;;;8.73;4.30;;;10.60;99.90;;;;;;5038095;28;20391;-68
2023/10/25 07:01:38;;;;;;;9.57;5.05;;;10.60;99.90;;;;;;5038760;28;20106;-69
2023/10/25 07:04:04;;;;;;;13.00;5.00;;;10.50;99.90;;;;;;5039959;28;20156;-68
2023/10/25 07:06:30;;;;;;;18.17;6.70;;;10.50;99.90;;;;;;5040761;28;20029;-67
2023/10/25 07:08:58;;;;;;;11.68;5.75;;;10.60;99.90;;;;;;5038769;28;20032;-68
2023/10/25 07:11:23;;;;;;;8.38;5.22;;;10.60;99.90;;;;;;5043575;28;20033;-68
2023/10/25 07:13:49;;;;;;;13.35;5.60;;;10.80;99.90;;;;;;5044226;28;20021;-66
2023/10/25 07:16:15;;;;;;;8.00;4.60;;;10.80;99.90;;;;;;5038791;28;20032;-67
2023/10/25 07:18:41;;;;;;;12.93;4.60;;;10.80;99.90;;;;;;5042750;28;20107;-67
2023/10/25 07:21:07;;;;;;;14.10;4.75;;;10.90;99.90;;;;;;5040108;28;20495;-67
2023/10/25 07:23:32;;;;;;;9.85;4.97;;;10.80;99.90;;;;;;5039074;28;20033;-67
2023/10/25 07:25:59;;;;;;;9.70;4.95;;;10.90;99.90;;;;;;5042332;28;20028;-67
2023/10/25 07:28:25;;;;;;;12.32;4.97;;;10.80;99.90;;;;;;5039654;28;20028;-67
2023/10/25 07:30:50;;;;;;;9.20;4.78;;;10.80;99.90;;;;;;5039991;28;20021;-68
2023/10/25 07:33:17;;;;;;;7.60;4.60;;;10.90;99.90;;;;;;5038258;28;20025;-68
2023/10/25 07:35:43;;;;;;;9.55;5.28;;;10.90;99.90;;;;;;5043543;28;20104;-67
2023/10/25 07:38:11;;;;;;;10.68;5.22;;;10.90;99.90;;;;;;5042206;28;20563;-67
2023/10/25 07:40:38;;;;;;;8.05;5.55;;;10.90;99.90;;;;;;5043381;28;20025;-67
2023/10/25 07:43:04;;;;;;;8.15;4.90;;;11.00;99.90;;;;;;5040408;28;20030;-68
2023/10/25 07:45:32;;;;;;;8.65;5.10;;;11.10;99.90;;;;;;5040511;28;22775;-67
2023/10/25 07:48:00;;;;;;;;;;;11.10;99.90;;;;;;5042679;28;20036;-67
2023/10/25 07:50:25;;;;;;;11.45;4.47;;;11.10;99.90;;;;;;5036647;28;19917;-67
2023/10/25 07:52:51;;;;;;;11.52;5.32;;;11.20;99.90;;;;;;5037649;28;20728;-67
2023/10/25 07:55:19;;;;;;;12.98;5.15;;;11.20;99.90;;;;;;5042627;28;20030;-68
2023/10/25 07:57:45;;;;;;;12.52;4.80;;;11.20;99.90;;;;;;5041897;28;20563;-67
2023/10/25 08:00:10;;;;;;;14.40;5.22;;;11.20;99.90;;;;;;5035507;28;20036;-68
2023/10/25 08:02:36;;;;;;;7.75;5.10;;;11.30;99.90;;;;;;5035322;28;20076;-68
2023/10/25 08:05:02;;;;;;;9.82;5.10;;;11.30;99.90;;;;;;5037689;28;20037;-67
2023/10/25 08:07:29;;;;;;;10.35;5.20;;;11.40;99.90;;;;;;5037033;28;20045;-67
2023/10/25 08:09:55;;;;;;;8.93;4.80;;;11.40;99.90;;;;;;5034775;28;20036;-68
2023/10/25 08:12:20;;;;;;;7.80;4.60;;;11.50;99.90;;;;;;5037455;28;20037;-67
2023/10/25 08:14:46;;;;;;;8.38;4.57;;;11.50;99.90;;;;;;5036257;28;20025;-68
2023/10/25 08:17:11;;;;;;;8.52;4.70;;;11.60;99.90;;;;;;5039477;28;20523;-67
2023/10/25 08:19:39;;;;;;;8.50;4.68;;;11.60;99.90;;;;;;5040392;28;20043;-68
2023/10/25 08:22:08;;;;;;;7.53;4.10;;;11.70;99.90;;;;;;5043946;28;20033;-68
2023/10/25 08:24:34;;;;;;;8.73;4.47;;;11.70;99.90;;;;;;5036669;28;20476;-67
2023/10/25 08:27:02;;;;;;;8.20;4.63;;;11.70;99.90;;;;;;5036660;28;20032;-68
2023/10/25 08:29:30;;;;;;;;;;;11.80;99.90;;;;;;5039218;28;20082;-67
2023/10/25 08:31:55;;;;;;;;;;;11.70;99.90;;;;;;5042140;28;20414;-68
2023/10/25 08:34:21;;;;;;;20.08;4.88;;;11.80;99.90;;;;;;5038957;28;20004;-68
2023/10/25 08:36:52;;;;;;;7.28;4.57;;;11.80;99.90;;;;;;5042003;28;20396;-67
2023/10/25 08:39:21;;;;;;;8.98;5.13;;;11.80;99.90;;;;;;5037776;28;20063;-67
2023/10/25 08:41:47;;;;;;;12.35;4.03;;;11.90;99.90;;;;;;5040249;28;20087;-68
2023/10/25 08:44:13;;;;;;;7.57;4.60;;;12.00;99.90;;;;;;5038116;28;20361;-68
2023/10/25 08:46:40;;;;;;;8.00;4.32;;;12.00;99.90;;;;;;5038061;28;20036;-67
2023/10/25 08:49:06;;;;;;;8.02;4.32;;;12.00;99.90;;;;;;5037590;28;20025;-67
2023/10/25 08:51:33;;;;;;;9.93;4.38;;;12.10;99.90;;;;;;5039365;28;20669;-67
2023/10/25 08:53:59;;;;;;;8.07;4.18;;;12.10;99.90;;;;;;5044471;28;20420;-67
2023/10/25 08:56:25;;;;;;;6.05;3.75;;;12.10;99.90;;;;;;5035189;28;20100;-67
2023/10/25 08:58:51;;;;;;;8.77;4.25;;;12.10;99.90;;;;;;5037570;28;20582;-68
2023/10/25 09:01:18;;;;;;;7.50;4.25;;;12.10;99.90;;;;;;5041366;28;20025;-68
2023/10/25 09:03:44;;;;;;;8.73;4.05;;;12.20;99.90;;;;;;5035479;28;20028;-67
2023/10/25 09:06:11;;;;;;;9.80;4.80;;;12.20;99.90;;;;;;5036013;28;20047;-67
2023/10/25 09:08:37;;;;;;;10.07;4.30;;;12.20;99.90;;;;;;5036079;28;20050;-67
2023/10/25 09:11:11;;;;;;;8.20;4.40;;;12.20;99.90;;;;;;5036728;28;20285;-67
2023/10/25 09:13:41;;;;;;;7.85;4.78;;;12.30;99.90;;;;;;5041488;28;20663;-67
2023/10/25 09:16:13;;;;;;;4.68;3.28;;;12.30;99.90;;;;;;5036507;28;20037;-67
2023/10/25 09:18:43;;;;;;;6.82;3.90;;;12.40;99.90;;;;;;5038077;28;20488;-68
2023/10/25 09:21:11;;;;;;;7.25;4.30;;;12.30;99.90;;;;;;5041451;28;20029;-68
2023/10/25 09:23:39;;;;;;;7.30;4.43;;;12.40;99.90;;;;;;5044995;28;20029;-67
2023/10/25 09:26:15;;;;;;;6.85;4.68;;;12.40;99.90;;;;;;5040430;28;20029;-67
2023/10/25 09:28:45;;;;;;;10.00;4.93;;;12.40;99.90;;;;;;5041247;28;20025;-68
2023/10/25 09:31:23;;;;;;;9.57;5.50;;;12.50;99.90;;;;;;5042295;28;20031;-67
2023/10/25 09:33:52;;;;;;;12.45;5.40;;;12.50;99.90;;;;;;5039653;28;20098;-67
2023/10/25 09:36:24;;;;;;;8.02;5.78;;;12.60;99.90;;;;;;5041256;28;20487;-68
2023/10/25 09:38:51;;;;;;;8.27;5.93;;;12.60;99.90;;;;;;5040757;28;20033;-67
2023/10/25 09:41:19;;;;;;;10.80;6.75;;;12.60;99.90;;;;;;5040767;28;20025;-68
2023/10/25 09:43:54;;;;;;;11.38;6.07;;;12.70;99.90;;;;;;5038533;28;20017;-68
2023/10/25 09:46:22;;;;;;;8.32;5.68;;;12.70;99.90;;;;;;5042757;28;20013;-67
2023/10/25 09:49:15;;;;;;;10.23;6.07;;;12.70;99.90;;;;;;5038425;28;20105;-67
2023/10/25 09:52:00;;;;;;;9.00;5.88;;;12.70;99.90;;;;;;5037472;28;20438;-68
2023/10/25 09:54:33;;;;;;;16.08;5.80;;;12.80;99.90;;;;;;5039648;28;20451;-68
2023/10/25 09:56:59;;;;;;;35.05;5.72;;;12.90;99.90;;;;;;5034877;28;20435;-69
2023/10/25 09:59:27;;;;;;;9.25;4.70;;;12.90;99.90;;;;;;5039617;28;20029;-68
2023/10/25 10:01:56;;;;;;;9.13;4.57;;;12.90;99.90;;;;;;5037204;28;20151;-68
2023/10/25 10:04:37;;;;;;;12.18;4.53;;;12.90;99.90;;;;;;5036549;28;20029;-68
2023/10/25 10:07:29;;;;;;;7.65;4.35;;;12.80;99.90;;;;;;5033522;28;20036;-68
2023/10/25 10:09:57;;;;;;;7.50;4.38;;;12.90;99.90;;;;;;5035699;28;20510;-66
2023/10/25 10:12:23;;;;;;;8.55;3.67;;;13.00;99.90;;;;;;5036678;28;20055;-67
2023/10/25 10:14:49;;;;;;;6.03;4.03;;;13.00;99.90;;;;;;5041108;28;20475;-66
2023/10/25 10:17:18;;;;;;;6.97;4.15;;;13.10;99.90;;;;;;5035804;28;20025;-66
2023/10/25 10:19:46;;;;;;;7.82;4.05;;;13.40;99.90;;;;;;5032903;28;20043;-67
2023/10/25 10:22:16;;;;;;;;;;;13.60;99.90;;;;;;5034257;28;20380;-67
2023/10/25 10:24:44;;;;;;;7.97;3.78;;;13.60;99.90;;;;;;5031213;28;19955;-68
2023/10/25 10:27:18;;;;;;;6.82;4.00;;;13.60;99.90;;;;;;5035374;28;20029;-67
2023/10/25 10:29:48;;;;;;;7.55;3.42;;;13.70;99.90;;;;;;5039986;28;20025;-67
2023/10/25 10:32:14;;;;;;;6.90;3.03;;;13.90;99.90;;;;;;5042424;28;20032;-67
2023/10/25 10:34:54;;;;;;;6.65;3.67;;;14.00;99.90;;;;;;5036844;28;20033;-67
2023/10/25 10:37:29;;;;;;;7.03;3.90;;;14.10;99.90;;;;;;5037384;28;20032;-67
2023/10/25 10:39:57;;;;;;;9.35;3.83;;;14.00;99.90;;;;;;5038568;28;20029;-67
2023/10/25 10:42:29;;;;;;;5.38;2.95;;;14.20;99.90;;;;;;5040687;28;20032;-67
2023/10/25 10:44:56;;;;;;;6.68;2.67;;;14.20;99.90;;;;;;5042829;28;20369;-67
2023/10/25 10:47:42;;;;;;;9.38;3.22;;;14.50;99.90;;;;;;5037177;28;20063;-67
2023/10/25 10:50:18;;;;;;;4.07;2.35;;;14.60;99.90;;;;;;5043063;28;20140;-68
2023/10/25 10:52:45;;;;;;;6.80;2.67;;;14.70;99.90;;;;;;5034437;28;20136;-67
2023/10/25 10:55:15;;;;;;;5.55;2.42;;;14.80;99.90;;;;;;5045024;28;20037;-67
2023/10/25 10:57:43;;;;;;;6.05;2.17;;;14.90;99.90;;;;;;5041578;28;20033;-67
2023/10/25 11:00:11;;;;;;;6.85;2.47;;;15.10;99.90;;;;;;5036026;28;20029;-67
2023/10/25 11:02:37;;;;;;;4.50;2.15;;;15.10;99.90;;;;;;5030770;28;20681;-67
2023/10/25 11:05:04;;;;;;;9.02;2.70;;;15.10;99.90;;;;;;5035753;28;20041;-67
2023/10/25 11:07:33;;;;;;;2.97;2.08;;;15.30;99.90;;;;;;5033843;28;20612;-68
2023/10/25 11:09:59;;;;;;;2.90;1.55;;;15.40;99.90;;;;;;5040610;28;20036;-67
2023/10/25 11:12:25;;;;;;;3.33;1.70;;;15.50;99.90;;;;;;5042171;28;20033;-67
2023/10/25 11:14:53;;;;;;;3.72;1.75;;;15.30;99.90;;;;;;5037753;28;20676;-68
2023/10/25 11:17:18;;;;;;;;;;;15.40;99.90;;;;;;5034773;28;20060;-67
2023/10/25 11:19:46;;;;;;;7.22;1.63;;;15.50;99.90;;;;;;5034954;28;19912;-67
2023/10/25 11:22:12;;;;;;;4.68;1.50;;;15.50;99.90;;;;;;5108863;22;20067;-76
2023/10/25 11:24:40;;;;;;;2.42;1.58;;;15.60;99.90;;;;;;5061784;28;20394;-77
2023/10/25 11:27:06;;;;;;;6.70;1.95;;;15.50;99.90;;;;;;5061650;28;20029;-77
2023/10/25 11:29:35;;;;;;;3.85;1.95;;;15.40;99.90;;;;;;5066615;28;20069;-77
2023/10/25 11:32:01;;;;;;;7.07;1.60;;;15.40;99.90;;;;;;5066438;28;20032;-76
2023/10/25 11:34:34;;;;;;;3.85;2.05;;;15.30;99.90;;;;;;5068512;28;20455;-76
2023/10/25 11:37:03;;;;;;;5.82;1.90;;;15.50;99.90;;;;;;5064435;28;20024;-77
2023/10/25 11:39:35;;;;;;;5.95;2.13;;;15.50;99.90;;;;;;5067033;28;20107;-77
2023/10/25 11:42:01;;;;;;;5.30;2.10;;;15.50;99.90;;;;;;5065482;28;20087;-77
2023/10/25 11:44:27;;;;;;;4.28;1.70;;;15.50;99.90;;;;;;5063714;28;20044;-76
2023/10/25 11:46:58;;;;;;;4.18;1.70;;;15.50;99.90;;;;;;5065674;28;20024;-77
2023/10/25 11:49:26;;;;;;;5.72;2.20;;;15.50;99.90;;;;;;5072052;28;20032;-77
2023/10/25 11:51:54;;;;;;;9.95;2.60;;;15.40;99.90;;;;;;5072014;28;20103;-78
2023/10/25 11:54:19;;;;;;;4.77;2.20;;;15.30;99.90;;;;;;5070219;28;20119;-77
2023/10/25 11:56:45;;;;;;;7.18;2.45;;;15.20;99.90;;;;;;5074265;28;21138;-78
2023/10/25 11:59:11;;;;;;;6.25;2.05;;;15.10;99.90;;;;;;5072276;28;20032;-78
2023/10/25 12:01:41;;;;;;;4.93;2.08;;;15.00;99.90;;;;;;5071567;28;20025;-77
2023/10/25 12:04:07;;;;;;;2.92;1.95;;;15.00;99.90;;;;;;5070956;28;20028;-77
2023/10/25 12:06:34;;;;;;;5.93;2.13;;;14.90;99.90;;;;;;5073416;28;20021;-78
2023/10/25 12:09:00;;;;;;;3.30;1.50;;;14.90;99.90;;;;;;5074858;28;20032;-76
2023/10/25 12:11:26;;;;;;;11.15;2.10;;;14.80;99.90;;;;;;5074204;28;20422;-77
2023/10/25 12:13:51;;;;;;;7.47;2.55;;;14.80;99.90;;;;;;5070958;28;20462;-76
2023/10/25 12:16:19;;;;;;;2.90;1.30;;;14.70;99.90;;;;;;5074991;28;20032;-77
2023/10/25 12:18:45;;;;;;;3.35;1.30;;;14.60;99.90;;;;;;5071710;28;20032;-75
2023/10/25 12:21:12;;;;;;;4.50;1.30;;;14.60;99.90;;;;;;5070644;28;20036;-75
2023/10/25 12:23:40;;;;;;;3.95;1.42;;;14.50;99.90;;;;;;5072520;28;20020;-76
2023/10/25 12:26:06;;;;;;;7.07;1.30;;;14.50;99.90;;;;;;5069943;28;20036;-76
2023/10/25 12:28:32;;;;;;;3.45;1.33;;;14.60;99.90;;;;;;5071605;28;20413;-75
2023/10/25 12:30:57;;;;;;;3.58;1.25;;;14.50;99.90;;;;;;5067432;28;20056;-75
2023/10/25 12:33:23;;;;;;;4.07;1.38;;;14.50;99.90;;;;;;5071063;28;20077;-76
2023/10/25 12:35:49;;;;;;;3.45;1.30;;;14.40;99.90;;;;;;5070852;28;20024;-75
2023/10/25 12:38:15;;;;;;;15.23;1.38;;;14.50;99.90;;;;;;5069632;28;20068;-76
2023/10/25 12:40:40;;;;;;;5.13;1.60;;;14.40;99.90;;;;;;5068106;28;20067;-76
2023/10/25 12:43:06;;;;;;;2.55;1.40;;;14.40;99.90;;;;;;5070197;28;20039;-76
2023/10/25 12:45:32;;;;;;;3.78;1.10;;;14.50;99.90;;;;;;5070435;28;20029;-76
2023/10/25 12:47:57;;;;;;;2.65;1.23;;;14.30;99.90;;;;;;5067268;28;20036;-76